Time;durP1;ratioP1;P1;durP2;ratioP2;P2;SDS_P1;SDS_P2;PMS_P1;PMS_P2;Temp;Humidity;BMP_temperature;BMP_pressure;BME280_temperature;BME280_humidity;BME280_pressure;Samples;Min_cycle;Max_cycle;Signal;HPM_P1;HPM_P2
2023/08/16 00:01:55;;;;;;;10.65;9.05;;;25.40;62.50;;;;;;5115814;28;20072;-70
2023/08/16 00:04:21;;;;;;;11.73;9.50;;;25.40;62.40;;;;;;5115884;28;20027;-70
2023/08/16 00:06:47;;;;;;;10.30;8.75;;;25.50;62.10;;;;;;5116069;28;20031;-70
2023/08/16 00:09:16;;;;;;;10.85;8.90;;;25.50;61.70;;;;;;5115338;28;20051;-70
2023/08/16 00:11:42;;;;;;;11.93;9.45;;;25.60;61.40;;;;;;5114833;28;20020;-70
2023/08/16 00:14:08;;;;;;;10.90;9.10;;;25.70;61.10;;;;;;5116264;28;20306;-70
2023/08/16 00:16:34;;;;;;;12.20;9.75;;;25.70;60.90;;;;;;5114759;28;20023;-70
2023/08/16 00:19:00;;;;;;;11.40;9.60;;;25.80;60.50;;;;;;5115942;28;20528;-70
2023/08/16 00:21:27;;;;;;;9.75;8.63;;;25.80;60.40;;;;;;5116154;28;20024;-70
2023/08/16 00:23:53;;;;;;;10.70;9.60;;;25.80;60.40;;;;;;5115638;28;20325;-70
2023/08/16 00:26:20;;;;;;;11.75;9.23;;;25.80;60.70;;;;;;5115623;28;20553;-70
2023/08/16 00:28:48;;;;;;;13.43;10.07;;;25.80;60.80;;;;;;5115572;28;20455;-70
2023/08/16 00:31:15;;;;;;;13.00;9.75;;;25.70;61.10;;;;;;5115456;28;20024;-70
2023/08/16 00:33:46;;;;;;;10.75;9.48;;;25.70;61.10;;;;;;5115826;28;20433;-70
2023/08/16 00:36:12;;;;;;;10.43;9.20;;;25.60;61.20;;;;;;5116035;28;20024;-70
2023/08/16 00:38:42;;;;;;;10.38;8.88;;;25.60;61.30;;;;;;5115473;28;20034;-70
2023/08/16 00:41:11;;;;;;;10.40;8.57;;;25.60;61.30;;;;;;5115392;28;20352;-70
2023/08/16 00:43:38;;;;;;;10.25;8.25;;;25.60;61.30;;;;;;5116013;28;20145;-70
2023/08/16 00:46:06;;;;;;;9.98;7.70;;;25.50;61.30;;;;;;5115470;28;20297;-70
2023/08/16 00:48:34;;;;;;;10.15;8.18;;;25.50;61.30;;;;;;5115827;28;20034;-70
2023/08/16 00:51:04;;;;;;;9.65;7.63;;;25.50;61.20;;;;;;5115297;28;20470;-70
2023/08/16 00:53:31;;;;;;;10.38;8.73;;;25.50;61.40;;;;;;5115408;28;20020;-70
2023/08/16 00:55:57;;;;;;;10.32;8.60;;;25.40;61.50;;;;;;5117223;28;20107;-70
2023/08/16 00:58:25;;;;;;;10.77;7.93;;;25.40;61.70;;;;;;5119208;27;20020;-70
2023/08/16 01:00:52;;;;;;;8.88;7.65;;;25.40;61.90;;;;;;5119352;28;20027;-70
2023/08/16 01:03:24;;;;;;;11.00;9.75;;;25.40;61.90;;;;;;5119108;28;20020;-70
2023/08/16 01:05:50;;;;;;;10.82;8.32;;;25.30;62.50;;;;;;5119086;28;20058;-70
2023/08/16 01:08:19;;;;;;;11.20;9.10;;;25.30;62.40;;;;;;5118990;28;20432;-70
2023/08/16 01:10:50;;;;;;;10.52;8.00;;;25.30;62.50;;;;;;5118798;28;20036;-70
2023/08/16 01:13:54;;;;;;;8.07;7.28;;;25.20;62.80;;;;;;5119502;28;20034;-70
2023/08/16 01:16:26;;;;;;;11.77;8.50;;;25.20;63.20;;;;;;5118842;27;20024;-70
2023/08/16 01:18:59;;;;;;;12.15;8.13;;;25.20;63.40;;;;;;5119703;28;20016;-70
2023/08/16 01:21:32;;;;;;;8.50;7.50;;;25.20;63.30;;;;;;5118694;28;20094;-70
2023/08/16 01:24:18;;;;;;;8.48;6.85;;;25.10;63.20;;;;;;5119254;28;20077;-70
2023/08/16 01:26:45;;;;;;;8.65;7.03;;;25.10;63.20;;;;;;5118643;28;20459;-70
2023/08/16 01:29:12;;;;;;;8.88;6.45;;;25.10;63.10;;;;;;5118851;28;20348;-70
2023/08/16 01:31:41;;;;;;;7.65;6.75;;;25.10;63.00;;;;;;5119095;28;20076;-70
2023/08/16 01:34:07;;;;;;;7.43;6.20;;;25.10;63.00;;;;;;5119120;28;20020;-70
2023/08/16 01:36:33;;;;;;;8.30;5.88;;;25.10;62.90;;;;;;5118546;28;20008;-70
2023/08/16 01:38:59;;;;;;;6.55;5.55;;;25.10;62.80;;;;;;5118488;28;20087;-70
2023/08/16 01:41:41;;;;;;;7.28;6.28;;;25.10;62.80;;;;;;5118375;28;20359;-70
2023/08/16 01:44:08;;;;;;;6.90;5.80;;;25.10;62.90;;;;;;5118987;28;20115;-70
2023/08/16 01:46:37;;;;;;;8.73;6.00;;;25.10;62.70;;;;;;5118344;28;20547;-70
2023/08/16 01:49:07;;;;;;;9.05;6.45;;;25.10;62.80;;;;;;5118173;28;20038;-70
2023/08/16 01:51:33;;;;;;;8.50;6.97;;;25.10;62.80;;;;;;5118134;28;20064;-70
2023/08/16 01:54:00;;;;;;;7.88;5.90;;;25.00;62.80;;;;;;5118447;28;20023;-70
2023/08/16 01:56:26;;;;;;;8.52;6.10;;;25.00;62.90;;;;;;5118405;28;20022;-70
2023/08/16 01:58:52;;;;;;;6.78;5.72;;;25.00;63.00;;;;;;5118113;28;20043;-70
2023/08/16 02:01:18;;;;;;;8.82;6.30;;;24.90;63.10;;;;;;5118177;28;20019;-70
2023/08/16 02:03:46;;;;;;;8.05;5.80;;;24.90;63.30;;;;;;5118038;28;20023;-70
2023/08/16 02:06:12;;;;;;;7.78;5.15;;;24.90;63.40;;;;;;5117756;28;20460;-70
2023/08/16 02:08:38;;;;;;;7.85;6.25;;;24.90;63.50;;;;;;5117822;28;20031;-70
2023/08/16 02:11:04;;;;;;;7.75;6.32;;;24.90;63.50;;;;;;5118299;28;20341;-70
2023/08/16 02:13:30;;;;;;;9.27;6.82;;;24.80;63.80;;;;;;5117194;28;20039;-70
2023/08/16 02:16:01;;;;;;;9.93;6.50;;;24.70;64.00;;;;;;5118036;28;20031;-70
2023/08/16 02:18:35;;;;;;;7.70;6.13;;;24.60;64.10;;;;;;5117720;28;20024;-70
2023/08/16 02:21:02;;;;;;;7.18;5.68;;;24.60;64.20;;;;;;5117854;28;20027;-70
2023/08/16 02:23:30;;;;;;;8.88;6.22;;;24.50;64.20;;;;;;5117518;28;20352;-70
2023/08/16 02:25:56;;;;;;;8.05;6.35;;;24.60;64.00;;;;;;5117529;28;20100;-70
2023/08/16 02:28:23;;;;;;;6.18;5.43;;;24.60;64.10;;;;;;5117799;28;20047;-70
2023/08/16 02:30:53;;;;;;;8.18;5.90;;;24.60;63.90;;;;;;5117663;28;20055;-70
2023/08/16 02:33:19;;;;;;;7.05;5.82;;;24.60;63.80;;;;;;5117446;28;20019;-70
2023/08/16 02:35:45;;;;;;;8.73;6.63;;;24.60;63.70;;;;;;5117387;28;20015;-70
2023/08/16 02:38:11;;;;;;;7.55;5.47;;;24.60;63.70;;;;;;5117598;28;20088;-70
2023/08/16 02:40:37;;;;;;;6.55;5.50;;;24.60;63.70;;;;;;5117448;28;20049;-70
2023/08/16 02:43:05;;;;;;;6.60;5.38;;;24.60;63.70;;;;;;5117515;27;20472;-70
2023/08/16 02:45:31;;;;;;;6.88;5.30;;;24.60;63.70;;;;;;5117098;28;20039;-70
2023/08/16 02:47:58;;;;;;;5.57;4.82;;;24.50;63.80;;;;;;5117358;28;20023;-70
2023/08/16 02:50:24;;;;;;;6.57;5.35;;;24.50;63.80;;;;;;5117269;28;20028;-70
2023/08/16 02:52:50;;;;;;;6.97;5.22;;;24.40;63.90;;;;;;5116895;28;20382;-70
2023/08/16 02:55:22;;;;;;;7.82;5.05;;;24.40;64.00;;;;;;5117210;28;20023;-70
2023/08/16 02:57:48;;;;;;;5.90;4.87;;;24.40;64.10;;;;;;5117505;28;20099;-70
2023/08/16 03:00:15;;;;;;;7.03;5.15;;;24.40;64.20;;;;;;5117148;28;20055;-70
2023/08/16 03:02:42;;;;;;;5.82;4.63;;;24.30;64.40;;;;;;5116865;28;20454;-70
2023/08/16 03:05:22;;;;;;;5.28;4.50;;;24.30;64.50;;;;;;5116791;27;20387;-70
2023/08/16 03:07:54;;;;;;;6.90;4.85;;;24.20;64.60;;;;;;5117341;28;20027;-70
2023/08/16 03:10:22;;;;;;;6.40;5.07;;;24.20;64.80;;;;;;5116583;28;20054;-70
2023/08/16 03:12:48;;;;;;;7.75;5.45;;;24.10;64.90;;;;;;5116616;28;20023;-70
2023/08/16 03:15:20;;;;;;;7.47;5.82;;;24.10;65.00;;;;;;5116640;28;20382;-70
2023/08/16 03:17:49;;;;;;;6.32;5.07;;;24.00;65.00;;;;;;5116330;28;20023;-70
2023/08/16 03:20:14;;;;;;;5.85;4.47;;;24.00;65.00;;;;;;5116759;28;20069;-70
2023/08/16 03:22:40;;;;;;;6.20;4.97;;;24.00;64.90;;;;;;5116686;28;20031;-70
2023/08/16 03:25:08;;;;;;;6.63;4.90;;;24.00;64.90;;;;;;5116705;28;20107;-70
2023/08/16 03:27:34;;;;;;;7.55;4.95;;;23.90;64.80;;;;;;5116625;28;20396;-70
2023/08/16 03:30:00;;;;;;;6.32;5.05;;;23.90;64.70;;;;;;5115329;28;20352;-70
2023/08/16 03:32:26;;;;;;;6.10;4.82;;;24.00;64.70;;;;;;5116254;28;20019;-70
2023/08/16 03:34:53;;;;;;;5.72;4.45;;;24.00;64.70;;;;;;5116247;28;20084;-70
2023/08/16 03:37:21;;;;;;;6.13;4.80;;;24.00;64.70;;;;;;5116515;28;20023;-70
2023/08/16 03:39:47;;;;;;;7.68;5.25;;;23.90;64.60;;;;;;5116021;28;20130;-70
2023/08/16 03:42:13;;;;;;;5.55;4.82;;;23.90;64.50;;;;;;5116179;28;20028;-70
2023/08/16 03:44:39;;;;;;;6.43;5.20;;;23.90;64.50;;;;;;5116423;28;20026;-70
2023/08/16 03:47:05;;;;;;;5.03;4.40;;;23.90;64.60;;;;;;5116100;28;20051;-70
2023/08/16 03:49:33;;;;;;;5.93;4.63;;;23.90;64.70;;;;;;5115992;28;20059;-70
2023/08/16 03:52:01;;;;;;;5.80;4.90;;;23.90;64.80;;;;;;5116191;28;20024;-70
2023/08/16 03:54:30;;;;;;;7.30;4.60;;;23.90;65.00;;;;;;5115900;28;20356;-70
2023/08/16 03:56:57;;;;;;;7.20;5.00;;;23.80;64.90;;;;;;5115900;28;20041;-69
2023/08/16 03:59:25;;;;;;;5.72;4.68;;;23.80;65.00;;;;;;5116468;28;20359;-70
2023/08/16 04:01:51;;;;;;;5.40;4.53;;;23.80;65.00;;;;;;5115826;28;20063;-70
2023/08/16 04:04:18;;;;;;;7.68;5.32;;;23.80;64.80;;;;;;5114876;28;20026;-70
2023/08/16 04:06:44;;;;;;;6.20;4.72;;;23.80;64.80;;;;;;5115841;28;20024;-70
2023/08/16 04:09:09;;;;;;;6.07;4.80;;;23.80;64.60;;;;;;5115915;28;20046;-70
2023/08/16 04:11:35;;;;;;;6.45;4.95;;;23.80;64.50;;;;;;5115989;28;20102;-70
2023/08/16 04:14:02;;;;;;;5.70;4.50;;;23.80;64.50;;;;;;5116018;28;20028;-70
2023/08/16 04:16:28;;;;;;;6.40;4.97;;;23.80;64.40;;;;;;5116253;28;20062;-70
2023/08/16 04:18:54;;;;;;;7.13;5.10;;;23.80;64.40;;;;;;5115697;28;20051;-70
2023/08/16 04:21:20;;;;;;;6.90;4.97;;;23.80;64.30;;;;;;5115631;28;20027;-70
2023/08/16 04:23:46;;;;;;;6.40;4.93;;;23.80;64.30;;;;;;5115710;28;20048;-70
2023/08/16 04:26:13;;;;;;;6.55;4.50;;;23.80;64.20;;;;;;5115670;28;20035;-70
2023/08/16 04:28:38;;;;;;;5.20;4.30;;;23.80;64.10;;;;;;5115812;28;20031;-70
2023/08/16 04:31:05;;;;;;;7.53;4.60;;;23.80;64.10;;;;;;5117205;28;20368;-70
2023/08/16 04:33:32;;;;;;;6.57;4.70;;;23.80;64.10;;;;;;5119675;28;20455;-70
2023/08/16 04:35:58;;;;;;;4.20;3.80;;;23.90;64.00;;;;;;5119736;28;20034;-70
2023/08/16 04:38:24;;;;;;;5.22;4.45;;;23.90;63.90;;;;;;5120058;28;20020;-70
2023/08/16 04:40:51;;;;;;;7.40;4.57;;;23.90;63.90;;;;;;5119457;28;20035;-70
2023/08/16 04:43:20;;;;;;;6.90;4.65;;;23.90;63.70;;;;;;5119566;28;20024;-70
2023/08/16 04:45:46;;;;;;;6.05;4.63;;;24.00;63.60;;;;;;5119509;28;20028;-70
2023/08/16 04:48:12;;;;;;;7.22;4.85;;;24.00;63.50;;;;;;5119420;27;20037;-70
2023/08/16 04:50:38;;;;;;;6.95;5.07;;;24.10;63.30;;;;;;5119258;28;20023;-70
2023/08/16 04:53:04;;;;;;;6.03;4.50;;;24.10;63.20;;;;;;5119675;27;20035;-70
2023/08/16 04:55:30;;;;;;;6.95;4.65;;;24.20;63.00;;;;;;5119894;28;20028;-70
2023/08/16 04:57:56;;;;;;;6.60;4.72;;;24.30;62.80;;;;;;5118346;28;20031;-70
2023/08/16 05:00:23;;;;;;;8.48;4.50;;;24.30;62.70;;;;;;5119264;28;20463;-70
2023/08/16 05:02:51;;;;;;;8.20;4.75;;;24.40;62.50;;;;;;5119114;28;20016;-70
2023/08/16 05:05:19;;;;;;;7.60;4.35;;;24.60;62.30;;;;;;5119706;28;20076;-70
2023/08/16 05:07:45;;;;;;;4.85;4.03;;;24.90;62.10;;;;;;5119055;28;20344;-70
2023/08/16 05:10:14;;;;;;;4.63;4.00;;;25.40;62.00;;;;;;5118807;28;20472;-70
2023/08/16 05:12:40;;;;;;;4.38;3.97;;;26.40;60.50;;;;;;5118954;28;20015;-70
2023/08/16 05:15:07;;;;;;;5.45;4.28;;;27.50;58.20;;;;;;5118968;28;20117;-71
2023/08/16 05:17:33;;;;;;;5.38;3.80;;;28.60;55.90;;;;;;5119175;28;20019;-70
2023/08/16 05:19:59;;;;;;;6.85;3.80;;;29.60;53.80;;;;;;5119109;28;20023;-70
2023/08/16 05:22:25;;;;;;;4.20;3.80;;;30.60;51.80;;;;;;5118836;28;20107;-70
2023/08/16 05:27:17;;;;;;;6.05;3.97;;;32.40;48.30;;;;;;5119299;28;20020;-70
2023/08/16 05:29:43;;;;;;;3.97;3.38;;;33.20;46.60;;;;;;5118593;28;20042;-70
2023/08/16 05:32:10;;;;;;;5.13;3.97;;;34.00;44.80;;;;;;5118529;28;20022;-70
2023/08/16 05:34:36;;;;;;;4.85;3.72;;;34.60;43.40;;;;;;5118518;28;20060;-70
2023/08/16 05:37:02;;;;;;;4.00;3.60;;;35.10;42.50;;;;;;5118809;27;20022;-70
2023/08/16 05:39:28;;;;;;;7.78;4.00;;;35.70;41.40;;;;;;5119079;28;20036;-71
2023/08/16 05:41:54;;;;;;;4.55;3.83;;;36.20;40.10;;;;;;5118405;28;20019;-71
2023/08/16 05:44:20;;;;;;;7.93;3.70;;;36.90;39.40;;;;;;5118946;28;20106;-70
2023/08/16 05:46:46;;;;;;;5.75;3.72;;;37.40;38.10;;;;;;5118356;28;20024;-70
2023/08/16 05:49:12;;;;;;;5.50;3.90;;;38.00;37.50;;;;;;5118223;28;20031;-70
2023/08/16 05:51:38;;;;;;;6.15;3.63;;;38.40;36.60;;;;;;5118142;28;20071;-70
2023/08/16 05:54:04;;;;;;;4.43;3.25;;;38.70;36.50;;;;;;5118518;28;20024;-70
2023/08/16 05:56:30;;;;;;;3.50;3.20;;;39.30;36.10;;;;;;5118174;28;20436;-70
2023/08/16 05:58:56;;;;;;;4.18;3.08;;;40.10;35.60;;;;;;5118412;28;20027;-70
2023/08/16 06:01:22;;;;;;;4.75;3.50;;;40.90;34.70;;;;;;5118285;28;20459;-70
2023/08/16 06:03:49;;;;;;;3.78;3.10;;;41.60;33.50;;;;;;5118269;28;20106;-70
2023/08/16 06:06:15;;;;;;;3.67;3.30;;;42.40;33.00;;;;;;5118011;28;20022;-70
2023/08/16 06:08:41;;;;;;;3.50;3.20;;;42.90;32.10;;;;;;5117237;28;20062;-70
2023/08/16 06:11:08;;;;;;;3.25;2.95;;;43.40;31.30;;;;;;5118404;27;20106;-70
2023/08/16 06:13:35;;;;;;;4.60;3.58;;;43.90;31.00;;;;;;5117791;28;20027;-70
2023/08/16 06:16:01;;;;;;;4.38;3.15;;;44.20;29.60;;;;;;5117960;28;20020;-70
2023/08/16 06:18:27;;;;;;;3.42;3.05;;;44.40;28.80;;;;;;5117603;27;20030;-70
2023/08/16 06:20:53;;;;;;;4.32;3.40;;;44.30;28.30;;;;;;5117933;28;20472;-69
2023/08/16 06:23:20;;;;;;;4.47;3.40;;;44.40;28.30;;;;;;5118012;28;20039;-70
2023/08/16 06:25:51;;;;;;;5.40;3.42;;;44.60;28.10;;;;;;5114882;28;20042;-70
2023/08/16 06:28:17;;;;;;;4.70;3.03;;;45.10;28.00;;;;;;5116431;28;20081;-70
2023/08/16 06:30:43;;;;;;;4.55;3.10;;;45.60;27.90;;;;;;5116819;28;20031;-70
2023/08/16 06:33:09;;;;;;;3.72;3.35;;;46.10;27.60;;;;;;5117147;28;20400;-70
2023/08/16 06:35:37;;;;;;;3.53;3.15;;;46.60;27.10;;;;;;5117765;28;20098;-70
2023/08/16 06:38:04;;;;;;;4.63;3.30;;;47.00;26.70;;;;;;5117191;28;20024;-70
2023/08/16 06:40:29;;;;;;;3.42;3.13;;;47.30;26.30;;;;;;5117191;27;20394;-70
2023/08/16 06:42:58;;;;;;;3.42;3.08;;;47.40;25.70;;;;;;5099112;28;20027;-70
2023/08/16 06:45:26;;;;;;;4.15;3.20;;;47.40;25.80;;;;;;5117583;28;20030;-70
2023/08/16 06:47:51;;;;;;;3.50;3.20;;;47.60;25.50;;;;;;5117041;28;20088;-70
2023/08/16 06:50:17;;;;;;;3.40;3.10;;;47.70;25.60;;;;;;5115929;28;20114;-71
2023/08/16 06:52:44;;;;;;;4.05;3.10;;;47.90;25.60;;;;;;5116543;28;20024;-70
2023/08/16 06:55:12;;;;;;;4.18;3.40;;;47.90;25.20;;;;;;5116376;28;20024;-70
2023/08/16 06:57:38;;;;;;;4.68;3.10;;;47.90;25.10;;;;;;5116849;28;20448;-70
2023/08/16 07:00:05;;;;;;;4.30;3.72;;;47.80;25.00;;;;;;5116853;28;20102;-70
2023/08/16 07:02:31;;;;;;;4.18;3.38;;;47.80;25.10;;;;;;5117009;28;20060;-71
2023/08/16 07:05:01;;;;;;;4.65;3.17;;;47.90;25.20;;;;;;5117140;28;20035;-70
2023/08/16 07:07:30;;;;;;;5.80;3.50;;;48.10;25.10;;;;;;5116883;28;20042;-70
2023/08/16 07:09:59;;;;;;;6.07;3.30;;;48.40;24.90;;;;;;5116417;28;20077;-70
2023/08/16 07:12:25;;;;;;;3.95;3.50;;;48.40;24.60;;;;;;5116488;28;20027;-71
2023/08/16 07:14:52;;;;;;;4.03;3.45;;;48.40;24.30;;;;;;5116964;28;20020;-70
2023/08/16 07:19:50;;;;;;;4.88;3.78;;;47.00;24.70;;;;;;5117142;28;20446;-70
2023/08/16 07:22:16;;;;;;;6.55;3.60;;;45.50;25.80;;;;;;5116444;28;20066;-70
2023/08/16 07:24:45;;;;;;;4.80;3.90;;;44.00;27.00;;;;;;5115944;28;20440;-70
2023/08/16 07:27:11;;;;;;;6.75;4.10;;;42.50;28.30;;;;;;5116107;28;20114;-70
2023/08/16 07:29:37;;;;;;;5.30;4.03;;;41.40;29.60;;;;;;5116097;28;20166;-70
2023/08/16 07:32:03;;;;;;;5.35;4.13;;;40.40;30.60;;;;;;5116543;28;20023;-70
2023/08/16 07:34:29;;;;;;;4.57;3.92;;;39.70;31.50;;;;;;5116072;28;20023;-70
2023/08/16 07:36:55;;;;;;;5.32;3.90;;;39.10;32.20;;;;;;5116289;28;20035;-70
2023/08/16 07:39:24;;;;;;;4.93;4.43;;;38.60;33.00;;;;;;5115345;28;20031;-70
2023/08/16 07:41:54;;;;;;;5.22;4.05;;;38.20;33.40;;;;;;5116159;28;20028;-70
2023/08/16 07:44:22;;;;;;;5.15;4.50;;;37.90;33.40;;;;;;5116051;28;20035;-70
2023/08/16 07:46:48;;;;;;;4.63;4.22;;;37.60;33.80;;;;;;5115876;28;20037;-70
2023/08/16 07:49:14;;;;;;;4.40;4.00;;;37.40;34.30;;;;;;5115979;28;20365;-70
2023/08/16 07:51:40;;;;;;;5.78;4.20;;;37.30;34.80;;;;;;5116033;28;20031;-70
2023/08/16 07:54:06;;;;;;;5.55;4.28;;;37.10;34.80;;;;;;5115709;28;20062;-70
2023/08/16 07:56:32;;;;;;;5.53;3.80;;;37.00;35.10;;;;;;5114710;28;20063;-70
2023/08/16 07:58:58;;;;;;;5.25;4.63;;;36.90;35.30;;;;;;5116230;28;20455;-70
2023/08/16 08:01:27;;;;;;;6.28;4.38;;;36.90;35.30;;;;;;5114610;28;20027;-70
2023/08/16 08:03:53;;;;;;;5.07;4.57;;;36.90;35.50;;;;;;5115514;28;20069;-70
2023/08/16 08:06:19;;;;;;;6.78;4.65;;;36.90;35.60;;;;;;5115757;28;20036;-70
2023/08/16 08:08:45;;;;;;;9.90;4.95;;;36.80;35.50;;;;;;5115414;28;20364;-70
2023/08/16 08:11:12;;;;;;;5.03;4.47;;;36.80;35.50;;;;;;5115882;28;20028;-70
2023/08/16 08:13:38;;;;;;;4.78;4.35;;;36.70;35.60;;;;;;5115974;28;20451;-70
2023/08/16 08:16:04;;;;;;;5.82;4.43;;;36.70;35.60;;;;;;5115903;28;20027;-70
2023/08/16 08:18:30;;;;;;;6.40;4.93;;;36.70;35.90;;;;;;5116201;28;20015;-70
2023/08/16 08:20:59;;;;;;;5.68;5.03;;;36.70;35.60;;;;;;5115798;28;20455;-70
2023/08/16 08:23:26;;;;;;;7.25;4.80;;;36.60;35.50;;;;;;5115523;28;20028;-70
2023/08/16 08:25:52;;;;;;;5.68;4.90;;;36.50;35.50;;;;;;5116138;28;20031;-70
2023/08/16 08:28:18;;;;;;;9.18;4.93;;;36.50;35.60;;;;;;5115572;28;20036;-70
2023/08/16 08:30:47;;;;;;;5.63;4.97;;;36.50;35.70;;;;;;5115396;28;20452;-70
2023/08/16 08:33:13;;;;;;;7.75;5.45;;;36.50;35.40;;;;;;5115443;28;20020;-70
2023/08/16 08:35:40;;;;;;;7.40;5.50;;;36.50;35.30;;;;;;5116010;28;20019;-70
2023/08/16 08:38:08;;;;;;;5.97;4.80;;;36.50;35.20;;;;;;5115495;28;20027;-70
2023/08/16 08:40:34;;;;;;;5.85;4.88;;;36.50;35.30;;;;;;5115484;28;20046;-70
2023/08/16 08:43:01;;;;;;;6.47;4.57;;;36.60;35.50;;;;;;5115354;28;20075;-70
2023/08/16 08:45:28;;;;;;;5.05;4.45;;;36.60;35.60;;;;;;5115414;28;20027;-70
2023/08/16 08:47:58;;;;;;;5.68;4.45;;;36.60;35.70;;;;;;5115362;28;20035;-70
2023/08/16 08:50:24;;;;;;;7.07;5.05;;;36.60;35.80;;;;;;5115243;28;20026;-70
2023/08/16 08:52:54;;;;;;;8.55;5.22;;;36.60;35.40;;;;;;5115297;28;20381;-70
2023/08/16 08:55:20;;;;;;;5.93;4.80;;;36.50;35.50;;;;;;5115874;28;20031;-70
2023/08/16 08:57:53;;;;;;;7.63;5.10;;;36.50;35.80;;;;;;5115557;28;20190;-70
2023/08/16 09:00:20;;;;;;;5.30;4.70;;;36.40;35.50;;;;;;5115532;28;20020;-70
2023/08/16 09:02:53;;;;;;;6.80;5.25;;;36.40;35.70;;;;;;5115159;28;20027;-70
2023/08/16 09:05:25;;;;;;;6.72;5.32;;;36.40;35.80;;;;;;5115860;28;20019;-70
2023/08/16 09:07:51;;;;;;;6.88;5.00;;;36.30;35.70;;;;;;5115398;28;20039;-70
2023/08/16 09:10:32;;;;;;;6.20;5.05;;;36.40;36.00;;;;;;5115004;28;20063;-70
2023/08/16 09:12:58;;;;;;;6.93;5.35;;;36.40;35.90;;;;;;5115151;28;20015;-70
2023/08/16 09:15:24;;;;;;;10.30;5.55;;;36.40;36.00;;;;;;5114217;28;20020;-70
2023/08/16 09:17:50;;;;;;;6.35;5.22;;;36.40;35.80;;;;;;5117827;28;20074;-70
2023/08/16 09:22:42;;;;;;;7.28;5.68;;;36.30;35.90;;;;;;5119534;28;20032;-62
2023/08/16 09:25:11;;;;;;;6.75;5.55;;;36.10;36.10;;;;;;5118802;28;20024;-62
2023/08/16 09:27:40;;;;;;;8.70;5.18;;;36.00;36.40;;;;;;5118731;28;20027;-62
2023/08/16 09:30:14;;;;;;;6.90;5.47;;;36.00;36.50;;;;;;5118980;28;20123;-62
2023/08/16 09:32:40;;;;;;;5.65;4.80;;;36.00;36.20;;;;;;5118580;28;20452;-62
2023/08/16 09:35:06;;;;;;;6.85;5.60;;;36.00;36.60;;;;;;5118711;28;20019;-62
2023/08/16 09:37:32;;;;;;;6.82;5.75;;;36.10;36.60;;;;;;5118632;28;20023;-61
2023/08/16 09:40:02;;;;;;;6.10;5.30;;;36.20;36.60;;;;;;5118915;28;20020;-62
2023/08/16 09:42:38;;;;;;;8.32;6.22;;;36.20;36.60;;;;;;5118455;28;20050;-61
2023/08/16 09:45:04;;;;;;;6.93;6.00;;;36.00;36.50;;;;;;5118740;28;20064;-62
2023/08/16 09:47:44;;;;;;;8.75;5.82;;;35.90;36.90;;;;;;5117462;28;20448;-61
2023/08/16 09:50:11;;;;;;;6.65;5.93;;;35.90;36.70;;;;;;5118581;28;20023;-62
2023/08/16 09:52:39;;;;;;;6.68;5.90;;;35.90;36.90;;;;;;5118552;28;20051;-62
2023/08/16 09:55:09;;;;;;;7.72;6.00;;;35.90;36.90;;;;;;5117314;28;20097;-62
2023/08/16 09:57:35;;;;;;;7.07;6.00;;;35.90;36.70;;;;;;5118142;28;20032;-62
2023/08/16 10:00:06;;;;;;;8.55;6.43;;;35.90;36.50;;;;;;5118242;28;20027;-60
2023/08/16 10:02:32;;;;;;;7.68;6.10;;;35.80;36.60;;;;;;5117195;28;20074;-60
2023/08/16 10:04:59;;;;;;;7.28;6.43;;;35.70;36.80;;;;;;5118060;28;20024;-61
2023/08/16 10:07:26;;;;;;;7.15;5.82;;;35.70;36.90;;;;;;5118490;27;20349;-60
2023/08/16 10:09:54;;;;;;;7.60;6.18;;;35.50;37.00;;;;;;5117559;28;20055;-61
2023/08/16 10:12:21;;;;;;;8.68;6.53;;;35.40;37.00;;;;;;5117710;28;20023;-60
2023/08/16 10:14:47;;;;;;;8.63;6.57;;;35.40;37.10;;;;;;5116799;28;20024;-60
2023/08/16 10:17:28;;;;;;;8.32;6.50;;;35.20;37.10;;;;;;5117737;28;20054;-60
2023/08/16 10:19:59;;;;;;;9.38;6.63;;;35.20;37.30;;;;;;5118242;28;20432;-61
2023/08/16 10:22:32;;;;;;;11.55;6.90;;;35.20;37.40;;;;;;5117842;28;20028;-60
2023/08/16 10:25:06;;;;;;;;;;;35.10;37.40;;;;;;5118322;28;20030;-61
2023/08/16 10:27:37;;;;;;;8.13;5.93;;;35.00;37.40;;;;;;5117818;28;19918;-61
2023/08/16 10:30:09;;;;;;;7.30;6.10;;;34.90;37.50;;;;;;5117935;28;20039;-61
2023/08/16 10:32:42;;;;;;;9.60;7.15;;;34.90;37.60;;;;;;5117366;28;20019;-60
2023/08/16 10:35:10;;;;;;;8.20;6.70;;;34.90;37.60;;;;;;5117951;28;20027;-60
2023/08/16 10:37:37;;;;;;;8.35;6.55;;;34.90;37.50;;;;;;5117868;28;20034;-60
2023/08/16 10:40:03;;;;;;;7.63;6.70;;;34.90;37.40;;;;;;5117199;28;20031;-60
2023/08/16 10:42:29;;;;;;;10.13;6.22;;;34.90;37.30;;;;;;5117390;28;20020;-60
2023/08/16 10:44:55;;;;;;;7.25;6.38;;;34.80;37.30;;;;;;5117395;28;20127;-61
2023/08/16 10:47:32;;;;;;;8.63;6.60;;;34.80;37.30;;;;;;5117075;28;20024;-60
2023/08/16 10:50:03;;;;;;;7.32;6.20;;;34.70;37.40;;;;;;5116956;28;20077;-60
2023/08/16 10:52:32;;;;;;;7.05;6.00;;;34.60;37.50;;;;;;5116830;28;20084;-60
2023/08/16 10:55:01;;;;;;;9.77;6.93;;;34.60;37.50;;;;;;5116898;28;20034;-61
2023/08/16 11:00:32;;;;;;;7.63;6.03;;;34.60;37.80;;;;;;5117475;28;20088;-60
2023/08/16 11:03:00;;;;;;;9.02;6.18;;;34.60;37.90;;;;;;5116603;28;20027;-60
2023/08/16 11:05:33;;;;;;;7.72;6.85;;;34.70;37.90;;;;;;5116842;28;20102;-60
2023/08/16 11:08:23;;;;;;;7.50;6.70;;;34.80;37.90;;;;;;5116203;28;20084;-60
2023/08/16 11:10:51;;;;;;;8.25;7.35;;;34.70;37.90;;;;;;5116334;28;20040;-60
2023/08/16 11:13:20;;;;;;;7.88;6.50;;;34.50;37.80;;;;;;5116603;28;20034;-60
2023/08/16 11:15:47;;;;;;;8.50;6.80;;;34.50;38.00;;;;;;5116581;28;20026;-60
2023/08/16 11:18:31;;;;;;;9.52;6.90;;;34.40;37.80;;;;;;5116525;28;20032;-60
2023/08/16 11:21:01;;;;;;;10.73;6.65;;;34.40;37.70;;;;;;5115864;28;20069;-61
2023/08/16 11:23:37;;;;;;;6.80;6.10;;;34.30;37.80;;;;;;5115615;28;20027;-60
2023/08/16 11:26:04;;;;;;;9.93;6.88;;;34.40;37.70;;;;;;5117034;28;20031;-60
2023/08/16 11:28:31;;;;;;;8.35;6.45;;;34.40;37.50;;;;;;5116413;28;20467;-61
2023/08/16 11:31:03;;;;;;;8.10;6.70;;;34.40;37.40;;;;;;5116251;28;20027;-60
2023/08/16 11:33:33;;;;;;;9.27;6.68;;;34.50;37.30;;;;;;5116602;27;20028;-61
2023/08/16 11:36:04;;;;;;;8.95;6.53;;;34.40;37.40;;;;;;5116169;28;20023;-60
2023/08/16 11:38:30;;;;;;;7.75;6.85;;;34.40;37.60;;;;;;5116195;28;20035;-61
2023/08/16 11:40:56;;;;;;;8.88;6.70;;;34.40;37.90;;;;;;5115734;28;20024;-60
2023/08/16 11:43:34;;;;;;;8.52;6.55;;;34.40;38.00;;;;;;5116191;28;20024;-61
2023/08/16 11:48:36;;;;;;;9.32;6.90;;;34.30;38.10;;;;;;5116606;28;20020;-61
2023/08/16 11:51:16;;;;;;;7.22;6.47;;;34.20;38.30;;;;;;5115885;28;20027;-61
2023/08/16 11:53:42;;;;;;;8.95;6.90;;;34.20;38.30;;;;;;5116302;28;20031;-60
2023/08/16 11:56:08;;;;;;;8.55;7.10;;;34.20;38.40;;;;;;5115992;28;20352;-60
2023/08/16 11:58:49;;;;;;;7.80;6.63;;;34.30;38.60;;;;;;5115977;27;20012;-60
2023/08/16 12:01:16;;;;;;;7.90;6.53;;;34.20;38.80;;;;;;5115422;28;20433;-61
2023/08/16 12:03:46;;;;;;;8.80;6.90;;;34.30;38.70;;;;;;5116407;28;20016;-61
2023/08/16 12:06:13;;;;;;;8.73;6.32;;;34.30;38.50;;;;;;5115739;28;20019;-60
2023/08/16 12:08:49;;;;;;;8.23;6.95;;;34.30;38.40;;;;;;5114701;28;20011;-60
2023/08/16 12:11:32;;;;;;;7.82;6.75;;;34.30;38.70;;;;;;5115436;28;20015;-61
2023/08/16 12:14:00;;;;;;;7.63;6.82;;;34.30;38.60;;;;;;5116062;28;20423;-60
2023/08/16 12:16:26;;;;;;;8.10;6.75;;;34.30;38.30;;;;;;5115963;28;20083;-61
2023/08/16 12:21:22;;;;;;;7.72;6.63;;;34.20;38.20;;;;;;5116215;28;20027;-60
2023/08/16 12:23:49;;;;;;;7.97;6.53;;;34.20;38.30;;;;;;5115631;28;20024;-60
2023/08/16 12:26:17;;;;;;;7.10;5.47;;;34.20;38.20;;;;;;5116531;28;20051;-60
2023/08/16 12:28:44;;;;;;;6.68;5.80;;;34.30;38.20;;;;;;5115656;28;20043;-60
2023/08/16 12:31:17;;;;;;;7.25;6.05;;;34.40;38.20;;;;;;5115541;28;20035;-61
2023/08/16 12:33:43;;;;;;;7.40;6.45;;;34.40;38.00;;;;;;5115616;28;20028;-60
2023/08/16 12:36:09;;;;;;;8.73;6.78;;;34.50;37.80;;;;;;5116145;28;20072;-61
2023/08/16 12:38:39;;;;;;;10.02;6.32;;;34.50;37.90;;;;;;5115855;28;20362;-60
2023/08/16 12:41:05;;;;;;;8.70;6.55;;;34.50;37.90;;;;;;5115399;28;20023;-60
2023/08/16 12:43:30;;;;;;;6.78;6.07;;;34.40;37.70;;;;;;5115807;28;20509;-61
2023/08/16 12:46:04;;;;;;;8.02;6.18;;;34.40;37.70;;;;;;5115779;28;20115;-60
2023/08/16 12:48:33;;;;;;;6.90;6.00;;;34.40;37.70;;;;;;5115468;28;20032;-60
2023/08/16 12:55:50;;;;;;;6.65;5.95;;;34.20;37.80;;;;;;5119968;28;20023;-60
2023/08/16 12:58:18;;;;;;;6.75;5.70;;;34.20;37.80;;;;;;5119336;28;20456;-60
2023/08/16 13:00:46;;;;;;;6.38;5.72;;;34.30;38.00;;;;;;5119752;28;20084;-60
2023/08/16 13:03:13;;;;;;;6.32;5.72;;;34.40;37.90;;;;;;5119323;28;20027;-60
2023/08/16 13:08:07;;;;;;;8.60;6.75;;;34.40;37.90;;;;;;5119665;28;20456;-60
2023/08/16 13:10:38;;;;;;;6.70;5.85;;;34.40;37.80;;;;;;5118686;27;20047;-60
2023/08/16 13:13:06;;;;;;;9.68;6.90;;;34.40;37.90;;;;;;5118885;28;20038;-60